Northsea Beta — 9HA2594 — position and weather

sailwx.info

Track history (hours):
 
Tides and Currents Weather Stations Pressure Air Temp Water Temp Dewpoint Dewpoint Depression Visibility Wind Speed Wind Dir Waves Ship Positions

Northsea Beta

Last reported at 2015-Jul-04 02:32 UTC. Time now 2015-Jul-04 03:24 UTC.
Position N 43°24' E 004°55'.

Length 110 m; draft 6.5 m.

Type: Ship (hazmat cat B). MMSI: 248970000.

Date/timePositionNaut miles runAvg speedWind from/ knotsBaromVisibWave heightAir tempDewpointWater temp
2015-Jul-04 02:32N 43°24' E 004°55'0 0.0
2015-Jul-04 01:32N 43°24' E 004°55'0 0.0
2015-Jul-04 00:31N 43°24' E 004°55'0 0.0
2015-Jul-03 23:32N 43°24' E 004°55'0 0.0
2015-Jul-03 22:32N 43°24' E 004°55'0 0.0
2015-Jul-03 21:31N 43°25' E 004°55'0 0.0
2015-Jul-03 20:31N 43°25' E 004°55'0 0.0
2015-Jul-03 19:31N 43°25' E 004°55'0 0.0
2015-Jul-03 18:28N 43°24' E 004°55'0 0.0
2015-Jul-03 17:31N 43°25' E 004°55'0 0.0
2015-Jul-03 16:31N 43°25' E 004°55'0 0.0
2015-Jul-03 15:31N 43°25' E 004°55'0 0.0
2015-Jul-03 14:31N 43°25' E 004°55'0 0.0
2015-Jul-03 13:31N 43°25' E 004°55'0 0.0
2015-Jul-03 12:31N 43°25' E 004°55'0 0.0
2015-Jul-03 11:31N 43°25' E 004°55'2 1.7
2015-Jul-03 10:33N 43°24' E 004°53'2 2.3
2015-Jul-03 09:33N 43°25' E 004°50'0 0.0
2015-Jul-03 08:33N 43°25' E 004°50'0 0.0
2015-Jul-03 07:33N 43°25' E 004°50'0 0.0
2015-Jul-03 06:30N 43°25' E 004°50'0 0.0
2015-Jul-03 05:33N 43°25' E 004°50'0 0.0
2015-Jul-03 04:33N 43°25' E 004°50'0 0.0
2015-Jul-03 03:33N 43°25' E 004°50'0 0.0
2015-Jul-03 02:27N 43°25' E 004°50'0 0.0
2015-Jul-03 01:33N 43°25' E 004°50'0 0.0
2015-Jul-03 00:33N 43°25' E 004°50'0 0.0
2015-Jul-02 23:27N 43°25' E 004°50'0 0.0
2015-Jul-02 22:30N 43°25' E 004°50'0 0.0
2015-Jul-02 21:33N 43°25' E 004°50'0 0.0
2015-Jul-02 20:33N 43°25' E 004°50'0 0.0
2015-Jul-02 19:30N 43°25' E 004°50'0 0.0
2015-Jul-02 18:33N 43°25' E 004°50'0 0.0
2015-Jul-02 17:33N 43°25' E 004°50'0 0.0
2015-Jul-02 16:24N 43°25' E 004°50'0 0.0
2015-Jul-02 15:33N 43°25' E 004°50'0 0.0
2015-Jul-02 14:30N 43°25' E 004°50'0 0.0
2015-Jul-02 13:18N 43°25' E 004°50'0 0.0
2015-Jul-02 12:30N 43°25' E 004°50'0 0.0
2015-Jul-02 11:30N 43°25' E 004°50'0 0.0
2015-Jul-02 10:24N 43°25' E 004°50'2 2.1
2015-Jul-02 09:34N 43°24' E 004°52'8 7.6
2015-Jul-02 08:33N 43°19' E 004°59'1 0.8
2015-Jul-02 07:33N 43°18' E 004°60'0 0.1
2015-Jul-02 06:34N 43°18' E 004°60'9 8.5
2015-Jul-02 05:33N 43°10' E 005°03'1212.3
2015-Jul-02 04:33N 42°57' E 005°05'1010.4
2015-Jul-02 03:33N 42°50' E 005°15'1010.3
2015-Jul-02 02:34N 42°43' E 005°25'1110.9
2015-Jul-02 01:33N 42°33' E 005°32'1110.9
2015-Jul-02 00:33N 42°24' E 005°39'1110.7
2015-Jul-01 23:33N 42°14' E 005°46'1110.6
2015-Jul-01 22:33N 42°05' E 005°53'1010.4
2015-Jul-01 21:33N 41°56' E 005°60'8 8.0
2015-Jul-01 20:32N 41°49' E 006°06'1111.4
2015-Jul-01 19:34N 41°39' E 006°13'10 9.7
2015-Jul-01 18:33N 41°30' E 006°19'10 9.8
2015-Jul-01 17:33N 41°22' E 006°25'1211.6
2015-Jul-01 16:31N 41°11' E 006°33'1111.5
2015-Jul-01 15:33N 41°01' E 006°40'1211.6
2015-Jul-01 14:29N 40°51' E 006°48'1212.5
2015-Jul-01 13:33N 40°40' E 006°56'1312.7
2015-Jul-01 12:30N 40°29' E 007°04'1212.8
2015-Jul-01 11:33N 40°18' E 007°12'1812.5
2015-Jul-01 10:07N 40°02' E 007°23'7512.8
2015-Jul-01 04:13N 38°56' E 008°10'1012.8
2015-Jul-01 03:28N 38°48' E 008°16'3612.5
2015-Jul-01 00:33N 38°37' E 009°01'1812.3
2015-Jun-30 23:08N 38°34' E 009°23'712.3
2015-Jun-30 22:33N 38°32' E 009°32'1412.5
2015-Jun-30 21:25N 38°29' E 009°49'1112.6
2015-Jun-30 20:33N 38°26' E 010°03'1312.6
2015-Jun-30 19:33N 38°23' E 010°18'1312.4
2015-Jun-30 18:33N 38°21' E 010°34'1312.4
2015-Jun-30 17:29N 38°17' E 010°50'1712.3
2015-Jun-30 16:05N 38°14' E 011°12'1112.4
2015-Jun-30 15:11N 38°11' E 011°25'812.1
2015-Jun-30 14:33N 38°09' E 011°35'1212.0
2015-Jun-30 13:33N 38°07' E 011°50'9 8.3
2015-Jun-30 12:27N 38°04' E 012°01'1112.2
2015-Jun-30 11:33N 38°04' E 012°15'1111.0
2015-Jun-30 10:33N 38°01' E 012°28'2 1.9
2015-Jun-30 09:32N 38°01' E 012°31'0 0.0
2015-Jun-30 08:32N 38°01' E 012°31'0 0.0
2015-Jun-30 07:23N 38°01' E 012°31'0 0.0
2015-Jun-30 06:26N 38°01' E 012°31'0 0.0
2015-Jun-30 05:26N 38°01' E 012°31'0 0.0
2015-Jun-30 04:26N 38°01' E 012°31'0 0.0
2015-Jun-30 03:29N 38°01' E 012°31'0 0.0
2015-Jun-30 02:29N 38°01' E 012°31'0 0.0
2015-Jun-30 01:29N 38°01' E 012°31'0 0.0
2015-Jun-30 00:32N 38°01' E 012°31'0 0.0
2015-Jun-29 23:32N 38°01' E 012°31'0 0.0
2015-Jun-29 22:32N 38°01' E 012°31'0 0.0
2015-Jun-29 21:32N 38°01' E 012°31'0 0.0
2015-Jun-29 20:32N 38°01' E 012°31'0 0.0
2015-Jun-29 19:32N 38°01' E 012°31'0 0.0
2015-Jun-29 18:32N 38°01' E 012°31'0 0.0
2015-Jun-29 17:23N 38°01' E 012°31'0 0.0
2015-Jun-29 16:26N 38°01' E 012°31'0 0.0
2015-Jun-29 15:26N 38°01' E 012°31'0 0.0
2015-Jun-29 14:26N 38°01' E 012°31'0 0.0
2015-Jun-29 13:29N 38°01' E 012°31'0 0.0
2015-Jun-29 12:29N 38°01' E 012°31'0 0.0
2015-Jun-29 11:29N 38°01' E 012°31'0 0.0
2015-Jun-29 10:32N 38°01' E 012°31'0 0.0
2015-Jun-29 09:32N 38°01' E 012°31'0 0.0
2015-Jun-29 08:32N 38°01' E 012°31'2 1.7
2015-Jun-29 07:34N 38°00' E 012°29'3 2.4
2015-Jun-29 06:31N 37°58' E 012°27'0 0.1
2015-Jun-29 05:22N 37°58' E 012°27'0 0.0
2015-Jun-29 04:22N 37°58' E 012°27'0 0.0
2015-Jun-29 03:25N 37°58' E 012°27'0 0.0
2015-Jun-29 02:33N 37°58' E 012°27'6 5.9
2015-Jun-29 01:33N 38°03' E 012°23'9 9.0
2015-Jun-29 00:33N 37°57' E 012°14'1410.4
2015-Jun-28 23:11N 37°43' E 012°12'17 9.9
2015-Jun-28 21:26N 37°28' E 012°23'1010.8
2015-Jun-28 20:33N 37°23' E 012°33'2210.8
2015-Jun-28 18:30N 37°10' E 012°56'1010.6
2015-Jun-28 17:33N 37°06' E 013°07'1212.4
2015-Jun-28 16:33N 36°59' E 013°20'1212.4
2015-Jun-28 15:33N 36°53' E 013°34'1211.7
2015-Jun-28 14:33N 36°45' E 013°45'1111.5
2015-Jun-28 13:33N 36°39' E 013°57'1212.1
2015-Jun-28 12:33N 36°33' E 014°10'1312.7
2015-Jun-28 11:33N 36°26' E 014°23'1211.9
2015-Jun-28 10:33N 36°21' E 014°37'1212.2
2015-Jun-28 09:32N 36°19' E 014°52'3 3.2
2015-Jun-28 08:32N 36°19' E 014°56'  
Track history (hours):
 
Tides and Currents Weather Stations Pressure Air Temp Water Temp Dewpoint Dewpoint Depression Visibility Wind Speed Wind Dir Waves Ship Positions

Northsea Beta

Last reported at 2015-Jul-04 02:32 UTC. Time now 2015-Jul-04 03:24 UTC.
Position N 43°24' E 004°55'.

Length 110 m; draft 6.5 m.

Type: Ship (hazmat cat B). MMSI: 248970000.

Date/timePositionNaut miles runAvg speedWind from/ knotsBaromVisibWave heightAir tempDewpointWater temp
2015-Jul-04 02:32N 43°24' E 004°55'0 0.0
2015-Jul-04 01:32N 43°24' E 004°55'0 0.0
2015-Jul-04 00:31N 43°24' E 004°55'0 0.0
2015-Jul-03 23:32N 43°24' E 004°55'0 0.0
2015-Jul-03 22:32N 43°24' E 004°55'0 0.0
2015-Jul-03 21:31N 43°25' E 004°55'0 0.0
2015-Jul-03 20:31N 43°25' E 004°55'0 0.0
2015-Jul-03 19:31N 43°25' E 004°55'0 0.0
2015-Jul-03 18:28N 43°24' E 004°55'0 0.0
2015-Jul-03 17:31N 43°25' E 004°55'0 0.0
2015-Jul-03 16:31N 43°25' E 004°55'0 0.0
2015-Jul-03 15:31N 43°25' E 004°55'0 0.0
2015-Jul-03 14:31N 43°25' E 004°55'0 0.0
2015-Jul-03 13:31N 43°25' E 004°55'0 0.0
2015-Jul-03 12:31N 43°25' E 004°55'0 0.0
2015-Jul-03 11:31N 43°25' E 004°55'2 1.7
2015-Jul-03 10:33N 43°24' E 004°53'2 2.3
2015-Jul-03 09:33N 43°25' E 004°50'0 0.0
2015-Jul-03 08:33N 43°25' E 004°50'0 0.0
2015-Jul-03 07:33N 43°25' E 004°50'0 0.0
2015-Jul-03 06:30N 43°25' E 004°50'0 0.0
2015-Jul-03 05:33N 43°25' E 004°50'0 0.0
2015-Jul-03 04:33N 43°25' E 004°50'0 0.0
2015-Jul-03 03:33N 43°25' E 004°50'0 0.0
2015-Jul-03 02:27N 43°25' E 004°50'0 0.0
2015-Jul-03 01:33N 43°25' E 004°50'0 0.0
2015-Jul-03 00:33N 43°25' E 004°50'0 0.0
2015-Jul-02 23:27N 43°25' E 004°50'0 0.0
2015-Jul-02 22:30N 43°25' E 004°50'0 0.0
2015-Jul-02 21:33N 43°25' E 004°50'0 0.0
2015-Jul-02 20:33N 43°25' E 004°50'0 0.0
2015-Jul-02 19:30N 43°25' E 004°50'0 0.0
2015-Jul-02 18:33N 43°25' E 004°50'0 0.0
2015-Jul-02 17:33N 43°25' E 004°50'0 0.0
2015-Jul-02 16:24N 43°25' E 004°50'0 0.0
2015-Jul-02 15:33N 43°25' E 004°50'0 0.0
2015-Jul-02 14:30N 43°25' E 004°50'0 0.0
2015-Jul-02 13:18N 43°25' E 004°50'0 0.0
2015-Jul-02 12:30N 43°25' E 004°50'0 0.0
2015-Jul-02 11:30N 43°25' E 004°50'0 0.0
2015-Jul-02 10:24N 43°25' E 004°50'2 2.1
2015-Jul-02 09:34N 43°24' E 004°52'8 7.6
2015-Jul-02 08:33N 43°19' E 004°59'1 0.8
2015-Jul-02 07:33N 43°18' E 004°60'0 0.1
2015-Jul-02 06:34N 43°18' E 004°60'9 8.5
2015-Jul-02 05:33N 43°10' E 005°03'1212.3
2015-Jul-02 04:33N 42°57' E 005°05'1010.4
2015-Jul-02 03:33N 42°50' E 005°15'1010.3
2015-Jul-02 02:34N 42°43' E 005°25'1110.9
2015-Jul-02 01:33N 42°33' E 005°32'1110.9
2015-Jul-02 00:33N 42°24' E 005°39'1110.7
2015-Jul-01 23:33N 42°14' E 005°46'1110.6
2015-Jul-01 22:33N 42°05' E 005°53'1010.4
2015-Jul-01 21:33N 41°56' E 005°60'8 8.0
2015-Jul-01 20:32N 41°49' E 006°06'1111.4
2015-Jul-01 19:34N 41°39' E 006°13'10 9.7
2015-Jul-01 18:33N 41°30' E 006°19'10 9.8
2015-Jul-01 17:33N 41°22' E 006°25'1211.6
2015-Jul-01 16:31N 41°11' E 006°33'1111.5
2015-Jul-01 15:33N 41°01' E 006°40'1211.6
2015-Jul-01 14:29N 40°51' E 006°48'1212.5
2015-Jul-01 13:33N 40°40' E 006°56'1312.7
2015-Jul-01 12:30N 40°29' E 007°04'1212.8
2015-Jul-01 11:33N 40°18' E 007°12'1812.5
2015-Jul-01 10:07N 40°02' E 007°23'7512.8
2015-Jul-01 04:13N 38°56' E 008°10'1012.8
2015-Jul-01 03:28N 38°48' E 008°16'3612.5
2015-Jul-01 00:33N 38°37' E 009°01'1812.3
2015-Jun-30 23:08N 38°34' E 009°23'712.3
2015-Jun-30 22:33N 38°32' E 009°32'1412.5
2015-Jun-30 21:25N 38°29' E 009°49'1112.6
2015-Jun-30 20:33N 38°26' E 010°03'1312.6
2015-Jun-30 19:33N 38°23' E 010°18'1312.4
2015-Jun-30 18:33N 38°21' E 010°34'1312.4
2015-Jun-30 17:29N 38°17' E 010°50'1712.3
2015-Jun-30 16:05N 38°14' E 011°12'1112.4
2015-Jun-30 15:11N 38°11' E 011°25'812.1
2015-Jun-30 14:33N 38°09' E 011°35'1212.0
2015-Jun-30 13:33N 38°07' E 011°50'9 8.3
2015-Jun-30 12:27N 38°04' E 012°01'1112.2
2015-Jun-30 11:33N 38°04' E 012°15'1111.0
2015-Jun-30 10:33N 38°01' E 012°28'2 1.9
2015-Jun-30 09:32N 38°01' E 012°31'0 0.0
2015-Jun-30 08:32N 38°01' E 012°31'0 0.0
2015-Jun-30 07:23N 38°01' E 012°31'0 0.0
2015-Jun-30 06:26N 38°01' E 012°31'0 0.0
2015-Jun-30 05:26N 38°01' E 012°31'0 0.0
2015-Jun-30 04:26N 38°01' E 012°31'0 0.0
2015-Jun-30 03:29N 38°01' E 012°31'0 0.0
2015-Jun-30 02:29N 38°01' E 012°31'0 0.0
2015-Jun-30 01:29N 38°01' E 012°31'0 0.0
2015-Jun-30 00:32N 38°01' E 012°31'0 0.0
2015-Jun-29 23:32N 38°01' E 012°31'0 0.0
2015-Jun-29 22:32N 38°01' E 012°31'0 0.0
2015-Jun-29 21:32N 38°01' E 012°31'0 0.0
2015-Jun-29 20:32N 38°01' E 012°31'0 0.0
2015-Jun-29 19:32N 38°01' E 012°31'0 0.0
2015-Jun-29 18:32N 38°01' E 012°31'0 0.0
2015-Jun-29 17:23N 38°01' E 012°31'0 0.0
2015-Jun-29 16:26N 38°01' E 012°31'0 0.0
2015-Jun-29 15:26N 38°01' E 012°31'0 0.0
2015-Jun-29 14:26N 38°01' E 012°31'0 0.0
2015-Jun-29 13:29N 38°01' E 012°31'0 0.0
2015-Jun-29 12:29N 38°01' E 012°31'0 0.0
2015-Jun-29 11:29N 38°01' E 012°31'0 0.0
2015-Jun-29 10:32N 38°01' E 012°31'0 0.0
2015-Jun-29 09:32N 38°01' E 012°31'0 0.0
2015-Jun-29 08:32N 38°01' E 012°31'2 1.7
2015-Jun-29 07:34N 38°00' E 012°29'3 2.4
2015-Jun-29 06:31N 37°58' E 012°27'0 0.1
2015-Jun-29 05:22N 37°58' E 012°27'0 0.0
2015-Jun-29 04:22N 37°58' E 012°27'0 0.0
2015-Jun-29 03:25N 37°58' E 012°27'0 0.0
2015-Jun-29 02:33N 37°58' E 012°27'6 5.9
2015-Jun-29 01:33N 38°03' E 012°23'9 9.0
2015-Jun-29 00:33N 37°57' E 012°14'1410.4
2015-Jun-28 23:11N 37°43' E 012°12'17 9.9
2015-Jun-28 21:26N 37°28' E 012°23'1010.8
2015-Jun-28 20:33N 37°23' E 012°33'2210.8
2015-Jun-28 18:30N 37°10' E 012°56'1010.6
2015-Jun-28 17:33N 37°06' E 013°07'1212.4
2015-Jun-28 16:33N 36°59' E 013°20'1212.4
2015-Jun-28 15:33N 36°53' E 013°34'1211.7
2015-Jun-28 14:33N 36°45' E 013°45'1111.5
2015-Jun-28 13:33N 36°39' E 013°57'1212.1
2015-Jun-28 12:33N 36°33' E 014°10'1312.7
2015-Jun-28 11:33N 36°26' E 014°23'1211.9
2015-Jun-28 10:33N 36°21' E 014°37'1212.2
2015-Jun-28 09:32N 36°19' E 014°52'3 3.2
2015-Jun-28 08:32N 36°19' E 014°56'  

Dump ship's entire track history